sensor_id;sensor_type;location;lat;lon;timestamp;temperature;humidity
32187;DHT22;18686;53.084;8.872;2022-07-10T00:00:09;14.20;99.90
32187;DHT22;18686;53.084;8.872;2022-07-10T00:02:41;14.30;99.90
32187;DHT22;18686;53.084;8.872;2022-07-10T00:05:12;14.20;99.90
32187;DHT22;18686;53.084;8.872;2022-07-10T00:07:46;14.20;99.90
32187;DHT22;18686;53.084;8.872;2022-07-10T00:10:14;14.20;99.90
32187;DHT22;18686;53.084;8.872;2022-07-10T00:12:43;14.20;99.90
32187;DHT22;18686;53.084;8.872;2022-07-10T00:15:12;14.20;99.90
32187;DHT22;18686;53.084;8.872;2022-07-10T00:17:41;14.20;99.90
32187;DHT22;18686;53.084;8.872;2022-07-10T00:20:12;14.30;99.90
32187;DHT22;18686;53.084;8.872;2022-07-10T00:22:41;14.30;99.90
32187;DHT22;18686;53.084;8.872;2022-07-10T00:25:11;14.30;99.90
32187;DHT22;18686;53.084;8.872;2022-07-10T00:27:39;14.30;99.90
32187;DHT22;18686;53.084;8.872;2022-07-10T00:30:08;14.30;99.90
32187;DHT22;18686;53.084;8.872;2022-07-10T00:32:37;14.30;99.90
32187;DHT22;18686;53.084;8.872;2022-07-10T00:35:06;14.30;99.90
32187;DHT22;18686;53.084;8.872;2022-07-10T00:37:35;14.30;99.90
32187;DHT22;18686;53.084;8.872;2022-07-10T00:40:05;14.30;99.90
32187;DHT22;18686;53.084;8.872;2022-07-10T00:42:34;14.20;99.90
32187;DHT22;18686;53.084;8.872;2022-07-10T00:45:02;14.30;99.90
32187;DHT22;18686;53.084;8.872;2022-07-10T00:47:30;14.30;99.90
32187;DHT22;18686;53.084;8.872;2022-07-10T00:49:58;14.20;99.90
32187;DHT22;18686;53.084;8.872;2022-07-10T00:52:26;14.20;99.90
32187;DHT22;18686;53.084;8.872;2022-07-10T00:54:56;14.20;99.90
32187;DHT22;18686;53.084;8.872;2022-07-10T00:57:25;14.20;99.90
32187;DHT22;18686;53.084;8.872;2022-07-10T00:59:53;14.20;99.90
32187;DHT22;18686;53.084;8.872;2022-07-10T01:02:22;14.20;99.90
32187;DHT22;18686;53.084;8.872;2022-07-10T01:04:51;14.20;99.90
32187;DHT22;18686;53.084;8.872;2022-07-10T01:07:19;14.20;99.90
32187;DHT22;18686;53.084;8.872;2022-07-10T01:09:47;14.10;99.90
32187;DHT22;18686;53.084;8.872;2022-07-10T01:12:17;14.10;99.90
32187;DHT22;18686;53.084;8.872;2022-07-10T01:14:45;14.10;99.90
32187;DHT22;18686;53.084;8.872;2022-07-10T01:17:14;14.10;99.90
32187;DHT22;18686;53.084;8.872;2022-07-10T01:19:42;14.10;99.90
32187;DHT22;18686;53.084;8.872;2022-07-10T01:22:12;14.10;99.90
32187;DHT22;18686;53.084;8.872;2022-07-10T01:24:40;14.10;99.90
32187;DHT22;18686;53.084;8.872;2022-07-10T01:27:08;14.20;99.90
32187;DHT22;18686;53.084;8.872;2022-07-10T01:29:36;14.10;99.90
32187;DHT22;18686;53.084;8.872;2022-07-10T01:32:06;14.10;99.90
32187;DHT22;18686;53.084;8.872;2022-07-10T01:34:34;14.20;99.90
32187;DHT22;18686;53.084;8.872;2022-07-10T01:37:02;14.10;99.90
32187;DHT22;18686;53.084;8.872;2022-07-10T01:39:32;14.10;99.90
32187;DHT22;18686;53.084;8.872;2022-07-10T01:42:00;14.10;99.90
32187;DHT22;18686;53.084;8.872;2022-07-10T01:44:28;14.10;99.90
32187;DHT22;18686;53.084;8.872;2022-07-10T01:46:57;14.10;99.90
32187;DHT22;18686;53.084;8.872;2022-07-10T01:49:25;14.10;99.90
32187;DHT22;18686;53.084;8.872;2022-07-10T01:51:53;14.10;99.90
32187;DHT22;18686;53.084;8.872;2022-07-10T01:54:21;14.10;99.90
32187;DHT22;18686;53.084;8.872;2022-07-10T01:56:50;14.10;99.90
32187;DHT22;18686;53.084;8.872;2022-07-10T01:59:19;14.10;99.90
32187;DHT22;18686;53.084;8.872;2022-07-10T02:01:47;14.10;99.90
32187;DHT22;18686;53.084;8.872;2022-07-10T02:04:16;14.10;99.90
32187;DHT22;18686;53.084;8.872;2022-07-10T02:07:01;14.10;99.90
32187;DHT22;18686;53.084;8.872;2022-07-10T02:09:29;14.00;99.90
32187;DHT22;18686;53.084;8.872;2022-07-10T02:11:59;14.00;99.90
32187;DHT22;18686;53.084;8.872;2022-07-10T02:14:27;14.00;99.90
32187;DHT22;18686;53.084;8.872;2022-07-10T02:16:55;13.90;99.90
32187;DHT22;18686;53.084;8.872;2022-07-10T02:19:23;13.90;99.90
32187;DHT22;18686;53.084;8.872;2022-07-10T02:21:51;13.80;99.90
32187;DHT22;18686;53.084;8.872;2022-07-10T02:24:19;13.80;99.90
32187;DHT22;18686;53.084;8.872;2022-07-10T02:26:48;13.80;99.90
32187;DHT22;18686;53.084;8.872;2022-07-10T02:29:17;13.80;99.90
32187;DHT22;18686;53.084;8.872;2022-07-10T02:31:45;13.80;99.90
32187;DHT22;18686;53.084;8.872;2022-07-10T02:34:13;13.70;99.90
32187;DHT22;18686;53.084;8.872;2022-07-10T02:36:41;13.60;99.90
32187;DHT22;18686;53.084;8.872;2022-07-10T02:39:10;13.50;99.90
32187;DHT22;18686;53.084;8.872;2022-07-10T02:41:38;13.50;99.90
32187;DHT22;18686;53.084;8.872;2022-07-10T02:44:07;13.50;99.90
32187;DHT22;18686;53.084;8.872;2022-07-10T02:46:37;13.40;99.90
32187;DHT22;18686;53.084;8.872;2022-07-10T02:49:05;13.40;99.90
32187;DHT22;18686;53.084;8.872;2022-07-10T02:51:33;13.50;99.90
32187;DHT22;18686;53.084;8.872;2022-07-10T02:54:01;13.50;99.90
32187;DHT22;18686;53.084;8.872;2022-07-10T02:56:29;13.50;99.90
32187;DHT22;18686;53.084;8.872;2022-07-10T02:58:57;13.50;99.90
32187;DHT22;18686;53.084;8.872;2022-07-10T03:01:26;13.50;99.90
32187;DHT22;18686;53.084;8.872;2022-07-10T03:03:55;13.50;99.90
32187;DHT22;18686;53.084;8.872;2022-07-10T03:06:23;13.40;99.90
32187;DHT22;18686;53.084;8.872;2022-07-10T03:08:51;13.40;99.90
32187;DHT22;18686;53.084;8.872;2022-07-10T03:11:19;13.30;99.90
32187;DHT22;18686;53.084;8.872;2022-07-10T03:13:48;13.30;99.90
32187;DHT22;18686;53.084;8.872;2022-07-10T03:16:16;13.20;99.90
32187;DHT22;18686;53.084;8.872;2022-07-10T03:18:44;13.10;99.90
32187;DHT22;18686;53.084;8.872;2022-07-10T03:21:14;13.00;99.90
32187;DHT22;18686;53.084;8.872;2022-07-10T03:23:42;13.00;99.90
32187;DHT22;18686;53.084;8.872;2022-07-10T03:26:10;13.10;99.90
32187;DHT22;18686;53.084;8.872;2022-07-10T03:28:39;13.10;99.90
32187;DHT22;18686;53.084;8.872;2022-07-10T03:31:08;13.10;99.90
32187;DHT22;18686;53.084;8.872;2022-07-10T03:33:36;13.20;99.90
32187;DHT22;18686;53.084;8.872;2022-07-10T03:36:05;13.30;99.90
32187;DHT22;18686;53.084;8.872;2022-07-10T03:38:35;13.40;99.90
32187;DHT22;18686;53.084;8.872;2022-07-10T03:41:04;13.40;99.90
32187;DHT22;18686;53.084;8.872;2022-07-10T03:43:32;13.40;99.90
32187;DHT22;18686;53.084;8.872;2022-07-10T03:46:00;13.40;99.90
32187;DHT22;18686;53.084;8.872;2022-07-10T03:48:28;13.40;99.90
32187;DHT22;18686;53.084;8.872;2022-07-10T03:50:56;13.30;99.90
32187;DHT22;18686;53.084;8.872;2022-07-10T03:53:25;13.20;99.90
32187;DHT22;18686;53.084;8.872;2022-07-10T03:55:55;13.20;99.90
32187;DHT22;18686;53.084;8.872;2022-07-10T03:58:23;13.10;99.90
32187;DHT22;18686;53.084;8.872;2022-07-10T04:00:50;13.00;99.90
32187;DHT22;18686;53.084;8.872;2022-07-10T04:03:18;12.90;99.90
32187;DHT22;18686;53.084;8.872;2022-07-10T04:05:47;12.90;99.90
32187;DHT22;18686;53.084;8.872;2022-07-10T04:08:15;13.00;99.90
32187;DHT22;18686;53.084;8.872;2022-07-10T04:10:43;13.10;99.90
32187;DHT22;18686;53.084;8.872;2022-07-10T04:13:12;13.20;99.90
32187;DHT22;18686;53.084;8.872;2022-07-10T04:15:41;13.30;99.90
32187;DHT22;18686;53.084;8.872;2022-07-10T04:18:09;13.40;99.90
32187;DHT22;18686;53.084;8.872;2022-07-10T04:20:37;13.40;99.90
32187;DHT22;18686;53.084;8.872;2022-07-10T04:23:05;13.50;99.90
32187;DHT22;18686;53.084;8.872;2022-07-10T04:25:34;13.50;99.90
32187;DHT22;18686;53.084;8.872;2022-07-10T04:28:02;13.60;99.90
32187;DHT22;18686;53.084;8.872;2022-07-10T04:30:31;13.60;99.90
32187;DHT22;18686;53.084;8.872;2022-07-10T04:32:59;13.70;99.90
32187;DHT22;18686;53.084;8.872;2022-07-10T04:35:27;13.80;99.90
32187;DHT22;18686;53.084;8.872;2022-07-10T04:37:56;13.80;99.90
32187;DHT22;18686;53.084;8.872;2022-07-10T04:40:24;13.90;99.90
32187;DHT22;18686;53.084;8.872;2022-07-10T04:42:52;14.00;99.90
32187;DHT22;18686;53.084;8.872;2022-07-10T04:45:20;14.10;99.90
32187;DHT22;18686;53.084;8.872;2022-07-10T04:47:50;14.20;99.90
32187;DHT22;18686;53.084;8.872;2022-07-10T04:50:18;14.30;99.90
32187;DHT22;18686;53.084;8.872;2022-07-10T04:52:46;14.40;99.90
32187;DHT22;18686;53.084;8.872;2022-07-10T04:55:15;14.60;99.90
32187;DHT22;18686;53.084;8.872;2022-07-10T04:57:43;14.70;99.90
32187;DHT22;18686;53.084;8.872;2022-07-10T05:00:12;14.70;99.90
32187;DHT22;18686;53.084;8.872;2022-07-10T05:02:40;14.70;99.90
32187;DHT22;18686;53.084;8.872;2022-07-10T05:05:10;14.60;99.90
32187;DHT22;18686;53.084;8.872;2022-07-10T05:07:38;14.60;99.90
32187;DHT22;18686;53.084;8.872;2022-07-10T05:10:07;14.60;99.90
32187;DHT22;18686;53.084;8.872;2022-07-10T05:12:35;14.50;99.90
32187;DHT22;18686;53.084;8.872;2022-07-10T05:15:04;14.50;99.90
32187;DHT22;18686;53.084;8.872;2022-07-10T05:17:33;14.50;99.90
32187;DHT22;18686;53.084;8.872;2022-07-10T05:20:01;14.70;99.90
32187;DHT22;18686;53.084;8.872;2022-07-10T05:22:30;14.80;99.90
32187;DHT22;18686;53.084;8.872;2022-07-10T05:24:58;14.90;99.90
32187;DHT22;18686;53.084;8.872;2022-07-10T05:27:27;15.00;99.90
32187;DHT22;18686;53.084;8.872;2022-07-10T05:29:55;15.20;99.90
32187;DHT22;18686;53.084;8.872;2022-07-10T05:32:23;15.30;99.90
32187;DHT22;18686;53.084;8.872;2022-07-10T05:34:52;15.40;99.90
32187;DHT22;18686;53.084;8.872;2022-07-10T05:37:20;15.60;99.90
32187;DHT22;18686;53.084;8.872;2022-07-10T05:39:49;15.80;99.90
32187;DHT22;18686;53.084;8.872;2022-07-10T05:42:17;15.90;99.90
32187;DHT22;18686;53.084;8.872;2022-07-10T05:44:45;16.00;99.90
32187;DHT22;18686;53.084;8.872;2022-07-10T05:47:13;16.00;99.90
32187;DHT22;18686;53.084;8.872;2022-07-10T05:49:42;16.00;99.90
32187;DHT22;18686;53.084;8.872;2022-07-10T05:52:10;16.00;99.60
32187;DHT22;18686;53.084;8.872;2022-07-10T05:54:38;16.00;99.00
32187;DHT22;18686;53.084;8.872;2022-07-10T05:57:08;16.00;98.80
32187;DHT22;18686;53.084;8.872;2022-07-10T05:59:36;16.00;99.00
32187;DHT22;18686;53.084;8.872;2022-07-10T06:02:04;16.00;98.30
32187;DHT22;18686;53.084;8.872;2022-07-10T06:04:32;16.00;97.70
32187;DHT22;18686;53.084;8.872;2022-07-10T06:07:01;16.00;97.80
32187;DHT22;18686;53.084;8.872;2022-07-10T06:09:29;16.10;97.80
32187;DHT22;18686;53.084;8.872;2022-07-10T06:11:57;16.20;97.70
32187;DHT22;18686;53.084;8.872;2022-07-10T06:14:26;16.40;97.60
32187;DHT22;18686;53.084;8.872;2022-07-10T06:16:54;16.70;96.60
32187;DHT22;18686;53.084;8.872;2022-07-10T06:19:22;16.80;96.00
32187;DHT22;18686;53.084;8.872;2022-07-10T06:21:51;17.00;95.00
32187;DHT22;18686;53.084;8.872;2022-07-10T06:24:39;17.10;94.10
32187;DHT22;18686;53.084;8.872;2022-07-10T06:27:07;17.20;93.30
32187;DHT22;18686;53.084;8.872;2022-07-10T06:29:36;17.20;93.10
32187;DHT22;18686;53.084;8.872;2022-07-10T06:32:05;17.20;92.70
32187;DHT22;18686;53.084;8.872;2022-07-10T06:34:33;17.20;92.90
32187;DHT22;18686;53.084;8.872;2022-07-10T06:37:01;17.30;93.30
32187;DHT22;18686;53.084;8.872;2022-07-10T06:39:32;17.40;92.90
32187;DHT22;18686;53.084;8.872;2022-07-10T06:42:02;17.80;92.90
32187;DHT22;18686;53.084;8.872;2022-07-10T06:44:38;18.40;90.70
32187;DHT22;18686;53.084;8.872;2022-07-10T06:47:07;18.90;87.40
32187;DHT22;18686;53.084;8.872;2022-07-10T06:49:53;19.50;82.70
32187;DHT22;18686;53.084;8.872;2022-07-10T06:52:22;20.00;78.60
32187;DHT22;18686;53.084;8.872;2022-07-10T06:54:50;20.40;73.70
32187;DHT22;18686;53.084;8.872;2022-07-10T06:57:20;20.40;70.10
32187;DHT22;18686;53.084;8.872;2022-07-10T06:59:49;20.30;69.70
32187;DHT22;18686;53.084;8.872;2022-07-10T07:02:18;20.30;70.00
32187;DHT22;18686;53.084;8.872;2022-07-10T07:04:46;20.50;69.60
32187;DHT22;18686;53.084;8.872;2022-07-10T07:07:15;20.80;68.10
32187;DHT22;18686;53.084;8.872;2022-07-10T07:09:50;21.30;68.00
32187;DHT22;18686;53.084;8.872;2022-07-10T07:12:19;21.90;65.10
32187;DHT22;18686;53.084;8.872;2022-07-10T07:14:49;22.40;62.70
32187;DHT22;18686;53.084;8.872;2022-07-10T07:17:17;23.30;59.30
32187;DHT22;18686;53.084;8.872;2022-07-10T07:19:51;23.70;56.40
32187;DHT22;18686;53.084;8.872;2022-07-10T07:22:39;23.80;54.50
32187;DHT22;18686;53.084;8.872;2022-07-10T07:25:24;23.80;53.90
32187;DHT22;18686;53.084;8.872;2022-07-10T07:27:52;24.30;53.80
32187;DHT22;18686;53.084;8.872;2022-07-10T07:30:22;25.10;52.10
32187;DHT22;18686;53.084;8.872;2022-07-10T07:32:50;26.00;50.20
32187;DHT22;18686;53.084;8.872;2022-07-10T07:35:18;27.80;47.40
32187;DHT22;18686;53.084;8.872;2022-07-10T07:37:48;30.10;43.90
32187;DHT22;18686;53.084;8.872;2022-07-10T07:40:18;32.50;40.60
32187;DHT22;18686;53.084;8.872;2022-07-10T07:42:48;34.60;36.80
32187;DHT22;18686;53.084;8.872;2022-07-10T07:45:16;35.40;34.10
32187;DHT22;18686;53.084;8.872;2022-07-10T07:47:47;36.30;34.10
32187;DHT22;18686;53.084;8.872;2022-07-10T07:50:17;37.40;32.90
32187;DHT22;18686;53.084;8.872;2022-07-10T07:52:46;38.60;30.60
32187;DHT22;18686;53.084;8.872;2022-07-10T07:55:16;39.80;30.00
32187;DHT22;18686;53.084;8.872;2022-07-10T07:57:44;40.50;29.10
32187;DHT22;18686;53.084;8.872;2022-07-10T08:00:14;39.80;29.00
32187;DHT22;18686;53.084;8.872;2022-07-10T08:02:45;38.70;30.00
32187;DHT22;18686;53.084;8.872;2022-07-10T08:05:13;37.30;30.00
32187;DHT22;18686;53.084;8.872;2022-07-10T08:07:45;37.00;31.00
32187;DHT22;18686;53.084;8.872;2022-07-10T08:10:15;36.90;30.50
32187;DHT22;18686;53.084;8.872;2022-07-10T08:12:45;36.30;30.70
32187;DHT22;18686;53.084;8.872;2022-07-10T08:15:15;35.20;30.60
32187;DHT22;18686;53.084;8.872;2022-07-10T08:17:48;34.00;31.30
32187;DHT22;18686;53.084;8.872;2022-07-10T08:20:16;32.70;32.10
32187;DHT22;18686;53.084;8.872;2022-07-10T08:22:45;32.00;33.30
32187;DHT22;18686;53.084;8.872;2022-07-10T08:25:14;32.00;33.70
32187;DHT22;18686;53.084;8.872;2022-07-10T08:27:42;32.30;33.30
32187;DHT22;18686;53.084;8.872;2022-07-10T08:30:11;32.20;33.10
32187;DHT22;18686;53.084;8.872;2022-07-10T08:32:39;31.90;32.90
32187;DHT22;18686;53.084;8.872;2022-07-10T08:35:10;31.50;33.80
32187;DHT22;18686;53.084;8.872;2022-07-10T08:37:38;32.30;33.60
32187;DHT22;18686;53.084;8.872;2022-07-10T08:40:09;34.40;32.70
32187;DHT22;18686;53.084;8.872;2022-07-10T08:42:38;36.20;30.80
32187;DHT22;18686;53.084;8.872;2022-07-10T08:45:12;36.60;29.50
32187;DHT22;18686;53.084;8.872;2022-07-10T08:47:41;36.10;29.30
32187;DHT22;18686;53.084;8.872;2022-07-10T08:50:17;35.20;29.70
32187;DHT22;18686;53.084;8.872;2022-07-10T08:52:52;34.20;30.20
32187;DHT22;18686;53.084;8.872;2022-07-10T08:55:27;33.60;30.80
32187;DHT22;18686;53.084;8.872;2022-07-10T08:58:01;32.90;31.30
32187;DHT22;18686;53.084;8.872;2022-07-10T09:00:33;32.20;32.00
32187;DHT22;18686;53.084;8.872;2022-07-10T09:03:02;31.50;32.60
32187;DHT22;18686;53.084;8.872;2022-07-10T09:05:32;30.70;33.30
32187;DHT22;18686;53.084;8.872;2022-07-10T09:08:00;29.80;33.90
32187;DHT22;18686;53.084;8.872;2022-07-10T09:10:28;29.10;34.20
32187;DHT22;18686;53.084;8.872;2022-07-10T09:12:58;28.80;34.30
32187;DHT22;18686;53.084;8.872;2022-07-10T09:15:29;29.00;35.40
32187;DHT22;18686;53.084;8.872;2022-07-10T09:18:01;29.40;34.40
32187;DHT22;18686;53.084;8.872;2022-07-10T09:20:33;31.20;33.40
32187;DHT22;18686;53.084;8.872;2022-07-10T09:23:15;32.50;31.60
32187;DHT22;18686;53.084;8.872;2022-07-10T09:25:44;32.70;29.80
32187;DHT22;18686;53.084;8.872;2022-07-10T09:28:16;32.40;30.00
32187;DHT22;18686;53.084;8.872;2022-07-10T09:30:46;32.80;30.20
32187;DHT22;18686;53.084;8.872;2022-07-10T09:33:17;32.80;29.80
32187;DHT22;18686;53.084;8.872;2022-07-10T09:35:57;32.30;30.00
32187;DHT22;18686;53.084;8.872;2022-07-10T09:39:03;31.90;30.30
32187;DHT22;18686;53.084;8.872;2022-07-10T09:41:31;31.20;31.00
32187;DHT22;18686;53.084;8.872;2022-07-10T09:44:00;30.60;31.80
32187;DHT22;18686;53.084;8.872;2022-07-10T09:46:32;30.10;32.30
32187;DHT22;18686;53.084;8.872;2022-07-10T09:49:02;29.40;32.90
32187;DHT22;18686;53.084;8.872;2022-07-10T09:51:33;29.00;33.60
32187;DHT22;18686;53.084;8.872;2022-07-10T09:54:03;28.80;34.50
32187;DHT22;18686;53.084;8.872;2022-07-10T09:56:38;29.30;34.90
32187;DHT22;18686;53.084;8.872;2022-07-10T09:59:10;29.80;33.40
32187;DHT22;18686;53.084;8.872;2022-07-10T10:01:43;30.50;33.00
32187;DHT22;18686;53.084;8.872;2022-07-10T10:04:12;31.40;31.40
32187;DHT22;18686;53.084;8.872;2022-07-10T10:06:42;31.80;30.90
32187;DHT22;18686;53.084;8.872;2022-07-10T10:09:16;32.40;30.80
32187;DHT22;18686;53.084;8.872;2022-07-10T10:11:47;32.70;30.40
32187;DHT22;18686;53.084;8.872;2022-07-10T10:14:19;32.00;30.40
32187;DHT22;18686;53.084;8.872;2022-07-10T10:16:48;31.10;31.10
32187;DHT22;18686;53.084;8.872;2022-07-10T10:19:18;30.20;32.20
32187;DHT22;18686;53.084;8.872;2022-07-10T10:22:06;29.00;33.40
32187;DHT22;18686;53.084;8.872;2022-07-10T10:24:42;27.90;34.70
32187;DHT22;18686;53.084;8.872;2022-07-10T10:27:10;27.20;36.40
32187;DHT22;18686;53.084;8.872;2022-07-10T10:29:39;26.90;37.60
32187;DHT22;18686;53.084;8.872;2022-07-10T10:32:07;26.80;37.80
32187;DHT22;18686;53.084;8.872;2022-07-10T10:34:41;27.00;37.40
32187;DHT22;18686;53.084;8.872;2022-07-10T10:37:36;26.80;37.30
32187;DHT22;18686;53.084;8.872;2022-07-10T10:40:06;26.40;37.60
32187;DHT22;18686;53.084;8.872;2022-07-10T10:42:39;26.10;38.20
32187;DHT22;18686;53.084;8.872;2022-07-10T10:45:30;26.30;39.10
32187;DHT22;18686;53.084;8.872;2022-07-10T10:48:05;27.30;38.50
32187;DHT22;18686;53.084;8.872;2022-07-10T10:50:55;28.70;36.70
32187;DHT22;18686;53.084;8.872;2022-07-10T10:53:26;29.80;34.70
32187;DHT22;18686;53.084;8.872;2022-07-10T10:56:23;31.20;34.30
32187;DHT22;18686;53.084;8.872;2022-07-10T10:58:51;33.00;32.60
32187;DHT22;18686;53.084;8.872;2022-07-10T11:01:25;33.80;31.50
32187;DHT22;18686;53.084;8.872;2022-07-10T11:04:13;33.80;30.20
32187;DHT22;18686;53.084;8.872;2022-07-10T11:06:43;33.50;30.40
32187;DHT22;18686;53.084;8.872;2022-07-10T11:09:29;32.90;30.80
32187;DHT22;18686;53.084;8.872;2022-07-10T11:11:58;32.10;31.50
32187;DHT22;18686;53.084;8.872;2022-07-10T11:14:27;31.70;32.30
32187;DHT22;18686;53.084;8.872;2022-07-10T11:16:56;31.50;32.90
32187;DHT22;18686;53.084;8.872;2022-07-10T11:19:25;32.20;33.30
32187;DHT22;18686;53.084;8.872;2022-07-10T11:25:25;33.20;31.70
32187;DHT22;18686;53.084;8.872;2022-07-10T11:28:04;33.20;31.90
32187;DHT22;18686;53.084;8.872;2022-07-10T11:30:46;32.70;31.50
32187;DHT22;18686;53.084;8.872;2022-07-10T11:33:15;32.00;32.00
32187;DHT22;18686;53.084;8.872;2022-07-10T11:35:45;31.20;32.90
32187;DHT22;18686;53.084;8.872;2022-07-10T11:38:19;30.30;33.60
32187;DHT22;18686;53.084;8.872;2022-07-10T11:40:49;29.40;34.40
32187;DHT22;18686;53.084;8.872;2022-07-10T11:43:19;28.40;35.60
32187;DHT22;18686;53.084;8.872;2022-07-10T11:45:51;27.30;37.00
32187;DHT22;18686;53.084;8.872;2022-07-10T11:48:21;26.40;38.50
32187;DHT22;18686;53.084;8.872;2022-07-10T11:50:50;26.10;39.60
32187;DHT22;18686;53.084;8.872;2022-07-10T11:53:23;26.40;40.10
32187;DHT22;18686;53.084;8.872;2022-07-10T11:55:53;27.30;39.20
32187;DHT22;18686;53.084;8.872;2022-07-10T11:58:21;27.80;38.30
32187;DHT22;18686;53.084;8.872;2022-07-10T12:01:03;27.90;37.70
32187;DHT22;18686;53.084;8.872;2022-07-10T12:03:36;27.60;37.80
32187;DHT22;18686;53.084;8.872;2022-07-10T12:06:06;27.20;38.70
32187;DHT22;18686;53.084;8.872;2022-07-10T12:08:44;26.90;39.60
32187;DHT22;18686;53.084;8.872;2022-07-10T12:11:15;26.30;40.40
32187;DHT22;18686;53.084;8.872;2022-07-10T12:13:45;25.60;41.50
32187;DHT22;18686;53.084;8.872;2022-07-10T12:16:14;25.00;42.90
32187;DHT22;18686;53.084;8.872;2022-07-10T12:18:43;24.20;44.80
32187;DHT22;18686;53.084;8.872;2022-07-10T12:21:14;23.60;46.20
32187;DHT22;18686;53.084;8.872;2022-07-10T12:23:46;23.20;47.30
32187;DHT22;18686;53.084;8.872;2022-07-10T12:26:17;23.10;47.90
32187;DHT22;18686;53.084;8.872;2022-07-10T12:28:55;23.30;48.20
32187;DHT22;18686;53.084;8.872;2022-07-10T12:31:25;23.60;47.90
32187;DHT22;18686;53.084;8.872;2022-07-10T12:33:56;24.10;47.10
32187;DHT22;18686;53.084;8.872;2022-07-10T12:36:41;24.50;45.80
32187;DHT22;18686;53.084;8.872;2022-07-10T12:39:11;24.70;45.30
32187;DHT22;18686;53.084;8.872;2022-07-10T12:42:01;24.70;44.90
32187;DHT22;18686;53.084;8.872;2022-07-10T12:44:32;24.70;44.40
32187;DHT22;18686;53.084;8.872;2022-07-10T12:47:01;24.70;44.30
32187;DHT22;18686;53.084;8.872;2022-07-10T12:49:29;24.70;44.10
32187;DHT22;18686;53.084;8.872;2022-07-10T12:51:57;24.70;44.10
32187;DHT22;18686;53.084;8.872;2022-07-10T12:54:41;24.30;44.80
32187;DHT22;18686;53.084;8.872;2022-07-10T12:57:10;23.80;46.00
32187;DHT22;18686;53.084;8.872;2022-07-10T12:59:39;23.30;48.40
32187;DHT22;18686;53.084;8.872;2022-07-10T13:02:16;22.70;50.20
32187;DHT22;18686;53.084;8.872;2022-07-10T13:04:54;22.10;51.70
32187;DHT22;18686;53.084;8.872;2022-07-10T13:07:30;21.60;53.80
32187;DHT22;18686;53.084;8.872;2022-07-10T13:09:59;21.30;54.90
32187;DHT22;18686;53.084;8.872;2022-07-10T13:12:32;21.30;55.90
32187;DHT22;18686;53.084;8.872;2022-07-10T13:15:01;21.60;56.20
32187;DHT22;18686;53.084;8.872;2022-07-10T13:17:29;22.50;54.70
32187;DHT22;18686;53.084;8.872;2022-07-10T13:19:57;24.00;51.60
32187;DHT22;18686;53.084;8.872;2022-07-10T13:22:26;25.00;47.80
32187;DHT22;18686;53.084;8.872;2022-07-10T13:24:54;26.00;46.70
32187;DHT22;18686;53.084;8.872;2022-07-10T13:27:22;26.90;44.10
32187;DHT22;18686;53.084;8.872;2022-07-10T13:29:52;27.70;42.50
32187;DHT22;18686;53.084;8.872;2022-07-10T13:32:20;28.10;41.10
32187;DHT22;18686;53.084;8.872;2022-07-10T13:34:55;28.50;40.30
32187;DHT22;18686;53.084;8.872;2022-07-10T13:37:23;28.70;40.20
32187;DHT22;18686;53.084;8.872;2022-07-10T13:39:52;29.10;39.90
32187;DHT22;18686;53.084;8.872;2022-07-10T13:42:20;29.40;39.50
32187;DHT22;18686;53.084;8.872;2022-07-10T13:44:48;29.30;39.20
32187;DHT22;18686;53.084;8.872;2022-07-10T13:47:18;28.90;39.30
32187;DHT22;18686;53.084;8.872;2022-07-10T13:49:47;28.40;39.60
32187;DHT22;18686;53.084;8.872;2022-07-10T13:52:15;28.10;40.30
32187;DHT22;18686;53.084;8.872;2022-07-10T13:54:44;27.90;40.20
32187;DHT22;18686;53.084;8.872;2022-07-10T13:57:12;27.50;40.60
32187;DHT22;18686;53.084;8.872;2022-07-10T13:59:40;27.10;40.80
32187;DHT22;18686;53.084;8.872;2022-07-10T14:02:08;26.60;42.10
32187;DHT22;18686;53.084;8.872;2022-07-10T14:04:43;26.00;42.50
32187;DHT22;18686;53.084;8.872;2022-07-10T14:07:12;25.40;43.50
32187;DHT22;18686;53.084;8.872;2022-07-10T14:09:40;24.90;44.50
32187;DHT22;18686;53.084;8.872;2022-07-10T14:12:09;24.50;45.90
32187;DHT22;18686;53.084;8.872;2022-07-10T14:14:37;24.30;46.90
32187;DHT22;18686;53.084;8.872;2022-07-10T14:17:05;24.10;47.20
32187;DHT22;18686;53.084;8.872;2022-07-10T14:19:33;24.20;47.70
32187;DHT22;18686;53.084;8.872;2022-07-10T14:22:03;24.20;47.90
32187;DHT22;18686;53.084;8.872;2022-07-10T14:24:31;24.30;48.10
32187;DHT22;18686;53.084;8.872;2022-07-10T14:27:06;24.40;48.20
32187;DHT22;18686;53.084;8.872;2022-07-10T14:29:34;24.50;48.30
32187;DHT22;18686;53.084;8.872;2022-07-10T14:32:02;24.60;48.30
32187;DHT22;18686;53.084;8.872;2022-07-10T14:34:34;24.50;48.10
32187;DHT22;18686;53.084;8.872;2022-07-10T14:37:04;24.40;48.60
32187;DHT22;18686;53.084;8.872;2022-07-10T14:39:32;24.10;48.30
32187;DHT22;18686;53.084;8.872;2022-07-10T14:42:03;23.70;48.30
32187;DHT22;18686;53.084;8.872;2022-07-10T14:45:12;23.40;49.20
32187;DHT22;18686;53.084;8.872;2022-07-10T14:48:11;23.10;49.30
32187;DHT22;18686;53.084;8.872;2022-07-10T14:50:39;22.70;49.70
32187;DHT22;18686;53.084;8.872;2022-07-10T14:53:09;22.60;50.00
32187;DHT22;18686;53.084;8.872;2022-07-10T14:55:38;22.80;50.20
32187;DHT22;18686;53.084;8.872;2022-07-10T14:58:06;22.90;49.50
32187;DHT22;18686;53.084;8.872;2022-07-10T15:00:34;23.00;49.30
32187;DHT22;18686;53.084;8.872;2022-07-10T15:03:02;23.00;49.20
32187;DHT22;18686;53.084;8.872;2022-07-10T15:05:31;23.00;48.90
32187;DHT22;18686;53.084;8.872;2022-07-10T15:08:00;22.80;49.20
32187;DHT22;18686;53.084;8.872;2022-07-10T15:10:30;22.80;49.50
32187;DHT22;18686;53.084;8.872;2022-07-10T15:12:59;22.80;49.20
32187;DHT22;18686;53.084;8.872;2022-07-10T15:15:31;22.70;49.10
32187;DHT22;18686;53.084;8.872;2022-07-10T15:18:00;22.60;49.20
32187;DHT22;18686;53.084;8.872;2022-07-10T15:20:29;22.60;49.70
32187;DHT22;18686;53.084;8.872;2022-07-10T15:22:57;22.60;49.70
32187;DHT22;18686;53.084;8.872;2022-07-10T15:25:25;22.70;50.00
32187;DHT22;18686;53.084;8.872;2022-07-10T15:27:55;22.60;50.00
32187;DHT22;18686;53.084;8.872;2022-07-10T15:30:23;22.60;50.20
32187;DHT22;18686;53.084;8.872;2022-07-10T15:32:51;22.60;50.50
32187;DHT22;18686;53.084;8.872;2022-07-10T15:35:20;22.60;50.70
32187;DHT22;18686;53.084;8.872;2022-07-10T15:37:50;22.50;50.70
32187;DHT22;18686;53.084;8.872;2022-07-10T15:40:25;22.60;51.10
32187;DHT22;18686;53.084;8.872;2022-07-10T15:42:55;22.70;51.20
32187;DHT22;18686;53.084;8.872;2022-07-10T15:45:24;22.60;51.30
32187;DHT22;18686;53.084;8.872;2022-07-10T15:47:53;22.40;51.70
32187;DHT22;18686;53.084;8.872;2022-07-10T15:50:22;22.30;52.10
32187;DHT22;18686;53.084;8.872;2022-07-10T15:52:50;22.10;52.80